sensor_id;sensor_type;location;lat;lon;timestamp;temperature;humidity
48208;DHT22;33997;53.278;9.708;2023-07-13T00:01:43;15.00;98.80
48208;DHT22;33997;53.278;9.708;2023-07-13T00:04:08;15.00;99.00
48208;DHT22;33997;53.278;9.708;2023-07-13T00:06:34;15.00;98.90
48208;DHT22;33997;53.278;9.708;2023-07-13T00:09:00;15.00;99.00
48208;DHT22;33997;53.278;9.708;2023-07-13T00:11:26;15.00;99.10
48208;DHT22;33997;53.278;9.708;2023-07-13T00:13:52;15.00;99.10
48208;DHT22;33997;53.278;9.708;2023-07-13T00:16:18;15.00;99.20
48208;DHT22;33997;53.278;9.708;2023-07-13T00:18:44;15.00;99.30
48208;DHT22;33997;53.278;9.708;2023-07-13T00:21:10;15.00;99.40
48208;DHT22;33997;53.278;9.708;2023-07-13T00:23:38;15.00;99.20
48208;DHT22;33997;53.278;9.708;2023-07-13T00:26:06;14.90;99.30
48208;DHT22;33997;53.278;9.708;2023-07-13T00:28:33;14.90;99.30
48208;DHT22;33997;53.278;9.708;2023-07-13T00:30:58;14.90;99.30
48208;DHT22;33997;53.278;9.708;2023-07-13T00:33:24;14.80;99.40
48208;DHT22;33997;53.278;9.708;2023-07-13T00:35:50;14.80;99.30
48208;DHT22;33997;53.278;9.708;2023-07-13T00:38:16;14.70;99.30
48208;DHT22;33997;53.278;9.708;2023-07-13T00:40:41;14.80;99.30
48208;DHT22;33997;53.278;9.708;2023-07-13T00:43:19;14.70;99.30
48208;DHT22;33997;53.278;9.708;2023-07-13T00:48:17;14.60;99.40
48208;DHT22;33997;53.278;9.708;2023-07-13T00:50:44;14.60;99.30
48208;DHT22;33997;53.278;9.708;2023-07-13T00:53:11;14.60;99.30
48208;DHT22;33997;53.278;9.708;2023-07-13T00:55:38;14.60;99.30
48208;DHT22;33997;53.278;9.708;2023-07-13T00:58:04;14.60;99.30
48208;DHT22;33997;53.278;9.708;2023-07-13T01:00:34;14.60;99.30
48208;DHT22;33997;53.278;9.708;2023-07-13T01:03:01;14.50;99.10
48208;DHT22;33997;53.278;9.708;2023-07-13T01:05:30;14.50;99.10
48208;DHT22;33997;53.278;9.708;2023-07-13T01:07:57;14.50;99.20
48208;DHT22;33997;53.278;9.708;2023-07-13T01:10:25;14.50;99.20
48208;DHT22;33997;53.278;9.708;2023-07-13T01:12:52;14.40;99.10
48208;DHT22;33997;53.278;9.708;2023-07-13T01:18:03;14.40;99.20
48208;DHT22;33997;53.278;9.708;2023-07-13T01:20:28;14.30;99.10
48208;DHT22;33997;53.278;9.708;2023-07-13T01:22:54;14.30;99.30
48208;DHT22;33997;53.278;9.708;2023-07-13T01:25:20;14.20;99.20
48208;DHT22;33997;53.278;9.708;2023-07-13T01:27:46;14.10;99.20
48208;DHT22;33997;53.278;9.708;2023-07-13T01:30:12;14.20;99.30
48208;DHT22;33997;53.278;9.708;2023-07-13T01:32:37;14.10;99.30
48208;DHT22;33997;53.278;9.708;2023-07-13T01:35:04;14.10;99.30
48208;DHT22;33997;53.278;9.708;2023-07-13T01:37:30;14.10;99.30
48208;DHT22;33997;53.278;9.708;2023-07-13T01:39:58;14.10;99.30
48208;DHT22;33997;53.278;9.708;2023-07-13T01:42:24;14.10;99.30
48208;DHT22;33997;53.278;9.708;2023-07-13T01:44:49;14.00;99.30
48208;DHT22;33997;53.278;9.708;2023-07-13T01:47:15;14.00;99.40
48208;DHT22;33997;53.278;9.708;2023-07-13T01:49:41;14.00;99.40
48208;DHT22;33997;53.278;9.708;2023-07-13T01:52:07;14.00;99.30
48208;DHT22;33997;53.278;9.708;2023-07-13T01:54:32;14.00;99.40
48208;DHT22;33997;53.278;9.708;2023-07-13T01:56:59;13.90;99.40
48208;DHT22;33997;53.278;9.708;2023-07-13T01:59:25;13.90;99.40
48208;DHT22;33997;53.278;9.708;2023-07-13T02:01:50;13.90;99.40
48208;DHT22;33997;53.278;9.708;2023-07-13T02:04:16;13.90;99.30
48208;DHT22;33997;53.278;9.708;2023-07-13T02:06:41;13.80;99.20
48208;DHT22;33997;53.278;9.708;2023-07-13T02:09:07;13.80;99.30
48208;DHT22;33997;53.278;9.708;2023-07-13T02:11:33;13.70;99.20
48208;DHT22;33997;53.278;9.708;2023-07-13T02:14:02;13.70;99.20
48208;DHT22;33997;53.278;9.708;2023-07-13T02:16:31;13.60;99.20
48208;DHT22;33997;53.278;9.708;2023-07-13T02:18:57;13.70;99.40
48208;DHT22;33997;53.278;9.708;2023-07-13T02:21:23;13.70;99.30
48208;DHT22;33997;53.278;9.708;2023-07-13T02:23:49;13.60;99.30
48208;DHT22;33997;53.278;9.708;2023-07-13T02:26:15;13.60;99.30
48208;DHT22;33997;53.278;9.708;2023-07-13T02:28:40;13.60;99.20
48208;DHT22;33997;53.278;9.708;2023-07-13T02:31:11;13.60;99.40
48208;DHT22;33997;53.278;9.708;2023-07-13T02:33:37;13.50;99.20
48208;DHT22;33997;53.278;9.708;2023-07-13T02:36:03;13.50;99.20
48208;DHT22;33997;53.278;9.708;2023-07-13T02:38:31;13.40;99.20
48208;DHT22;33997;53.278;9.708;2023-07-13T02:40:59;13.40;99.20
48208;DHT22;33997;53.278;9.708;2023-07-13T02:43:24;13.30;99.20
48208;DHT22;33997;53.278;9.708;2023-07-13T02:45:50;13.30;99.30
48208;DHT22;33997;53.278;9.708;2023-07-13T02:48:16;13.30;99.30
48208;DHT22;33997;53.278;9.708;2023-07-13T02:50:41;13.30;99.40
48208;DHT22;33997;53.278;9.708;2023-07-13T02:53:07;13.30;99.30
48208;DHT22;33997;53.278;9.708;2023-07-13T02:55:32;13.30;99.50
48208;DHT22;33997;53.278;9.708;2023-07-13T02:57:58;13.30;99.40
48208;DHT22;33997;53.278;9.708;2023-07-13T03:00:23;13.30;99.40
48208;DHT22;33997;53.278;9.708;2023-07-13T03:02:49;13.20;99.30
48208;DHT22;33997;53.278;9.708;2023-07-13T03:05:16;13.20;99.40
48208;DHT22;33997;53.278;9.708;2023-07-13T03:07:42;13.20;99.40
48208;DHT22;33997;53.278;9.708;2023-07-13T03:10:08;13.20;99.40
48208;DHT22;33997;53.278;9.708;2023-07-13T03:12:34;13.20;99.40
48208;DHT22;33997;53.278;9.708;2023-07-13T03:15:00;13.30;99.50
48208;DHT22;33997;53.278;9.708;2023-07-13T03:17:25;13.20;99.40
48208;DHT22;33997;53.278;9.708;2023-07-13T03:19:50;13.30;99.40
48208;DHT22;33997;53.278;9.708;2023-07-13T03:22:17;13.20;99.30
48208;DHT22;33997;53.278;9.708;2023-07-13T03:24:44;13.20;99.40
48208;DHT22;33997;53.278;9.708;2023-07-13T03:27:09;13.20;99.50
48208;DHT22;33997;53.278;9.708;2023-07-13T03:29:35;13.20;99.50
48208;DHT22;33997;53.278;9.708;2023-07-13T03:32:00;13.20;99.40
48208;DHT22;33997;53.278;9.708;2023-07-13T03:34:26;13.20;99.40
48208;DHT22;33997;53.278;9.708;2023-07-13T03:36:56;13.20;99.50
48208;DHT22;33997;53.278;9.708;2023-07-13T03:39:21;13.30;99.40
48208;DHT22;33997;53.278;9.708;2023-07-13T03:41:47;13.30;99.50
48208;DHT22;33997;53.278;9.708;2023-07-13T03:44:12;13.30;99.50
48208;DHT22;33997;53.278;9.708;2023-07-13T03:46:38;13.30;99.50
48208;DHT22;33997;53.278;9.708;2023-07-13T03:49:04;13.30;99.50
48208;DHT22;33997;53.278;9.708;2023-07-13T03:51:30;13.30;99.50
48208;DHT22;33997;53.278;9.708;2023-07-13T03:53:56;13.30;99.60
48208;DHT22;33997;53.278;9.708;2023-07-13T03:56:22;13.40;99.60
48208;DHT22;33997;53.278;9.708;2023-07-13T03:58:49;13.40;99.60
48208;DHT22;33997;53.278;9.708;2023-07-13T04:01:16;13.50;99.60
48208;DHT22;33997;53.278;9.708;2023-07-13T04:03:42;13.50;99.60
48208;DHT22;33997;53.278;9.708;2023-07-13T04:06:17;13.50;99.60
48208;DHT22;33997;53.278;9.708;2023-07-13T04:08:47;13.50;99.60
48208;DHT22;33997;53.278;9.708;2023-07-13T04:11:13;13.60;99.60
48208;DHT22;33997;53.278;9.708;2023-07-13T04:13:38;13.60;99.60
48208;DHT22;33997;53.278;9.708;2023-07-13T04:16:04;13.60;99.50
48208;DHT22;33997;53.278;9.708;2023-07-13T04:18:29;13.60;99.50
48208;DHT22;33997;53.278;9.708;2023-07-13T04:20:55;13.60;99.50
48208;DHT22;33997;53.278;9.708;2023-07-13T04:23:20;13.70;99.50
48208;DHT22;33997;53.278;9.708;2023-07-13T04:25:47;13.60;99.40
48208;DHT22;33997;53.278;9.708;2023-07-13T04:28:14;13.70;99.40
48208;DHT22;33997;53.278;9.708;2023-07-13T04:30:40;13.70;99.30
48208;DHT22;33997;53.278;9.708;2023-07-13T04:33:06;13.70;99.30
48208;DHT22;33997;53.278;9.708;2023-07-13T04:35:31;13.80;99.30
48208;DHT22;33997;53.278;9.708;2023-07-13T04:37:57;13.90;99.30
48208;DHT22;33997;53.278;9.708;2023-07-13T04:40:22;14.00;99.30
48208;DHT22;33997;53.278;9.708;2023-07-13T04:42:48;14.00;99.20
48208;DHT22;33997;53.278;9.708;2023-07-13T04:45:14;14.10;99.10
48208;DHT22;33997;53.278;9.708;2023-07-13T04:47:40;14.20;99.00
48208;DHT22;33997;53.278;9.708;2023-07-13T04:50:07;14.30;98.90
48208;DHT22;33997;53.278;9.708;2023-07-13T04:52:33;14.40;98.80
48208;DHT22;33997;53.278;9.708;2023-07-13T04:54:59;14.50;98.40
48208;DHT22;33997;53.278;9.708;2023-07-13T04:57:26;14.60;97.90
48208;DHT22;33997;53.278;9.708;2023-07-13T04:59:52;14.70;97.60
48208;DHT22;33997;53.278;9.708;2023-07-13T05:02:19;14.80;97.20
48208;DHT22;33997;53.278;9.708;2023-07-13T05:04:49;14.90;97.30
48208;DHT22;33997;53.278;9.708;2023-07-13T05:07:15;14.90;97.10
48208;DHT22;33997;53.278;9.708;2023-07-13T05:09:40;15.00;96.90
48208;DHT22;33997;53.278;9.708;2023-07-13T05:12:08;15.00;96.80
48208;DHT22;33997;53.278;9.708;2023-07-13T05:14:33;15.00;96.60
48208;DHT22;33997;53.278;9.708;2023-07-13T05:16:59;15.00;96.50
48208;DHT22;33997;53.278;9.708;2023-07-13T05:19:25;15.00;96.70
48208;DHT22;33997;53.278;9.708;2023-07-13T05:21:50;15.00;96.40
48208;DHT22;33997;53.278;9.708;2023-07-13T05:24:16;15.10;96.50
48208;DHT22;33997;53.278;9.708;2023-07-13T05:26:41;15.10;96.50
48208;DHT22;33997;53.278;9.708;2023-07-13T05:29:07;15.10;96.40
48208;DHT22;33997;53.278;9.708;2023-07-13T05:31:32;15.30;96.30
48208;DHT22;33997;53.278;9.708;2023-07-13T05:33:58;15.30;96.10
48208;DHT22;33997;53.278;9.708;2023-07-13T05:36:23;15.30;96.00
48208;DHT22;33997;53.278;9.708;2023-07-13T05:38:48;15.40;95.80
48208;DHT22;33997;53.278;9.708;2023-07-13T05:41:14;15.40;95.70
48208;DHT22;33997;53.278;9.708;2023-07-13T05:43:39;15.40;95.40
48208;DHT22;33997;53.278;9.708;2023-07-13T05:46:05;15.50;95.50
48208;DHT22;33997;53.278;9.708;2023-07-13T05:48:30;15.50;95.40
48208;DHT22;33997;53.278;9.708;2023-07-13T05:50:56;15.50;95.20
48208;DHT22;33997;53.278;9.708;2023-07-13T05:53:21;15.70;95.40
48208;DHT22;33997;53.278;9.708;2023-07-13T05:55:47;15.80;95.30
48208;DHT22;33997;53.278;9.708;2023-07-13T05:58:16;15.90;95.10
48208;DHT22;33997;53.278;9.708;2023-07-13T06:00:42;16.00;94.90
48208;DHT22;33997;53.278;9.708;2023-07-13T06:03:08;15.90;94.30
48208;DHT22;33997;53.278;9.708;2023-07-13T06:05:34;16.00;94.30
48208;DHT22;33997;53.278;9.708;2023-07-13T06:08:01;16.10;94.10
48208;DHT22;33997;53.278;9.708;2023-07-13T06:10:26;16.30;94.10
48208;DHT22;33997;53.278;9.708;2023-07-13T06:12:52;16.50;93.40
48208;DHT22;33997;53.278;9.708;2023-07-13T06:15:18;16.50;93.10
48208;DHT22;33997;53.278;9.708;2023-07-13T06:17:43;16.80;93.20
48208;DHT22;33997;53.278;9.708;2023-07-13T06:20:09;16.90;93.20
48208;DHT22;33997;53.278;9.708;2023-07-13T06:22:35;16.70;92.30
48208;DHT22;33997;53.278;9.708;2023-07-13T06:25:00;16.70;91.50
48208;DHT22;33997;53.278;9.708;2023-07-13T06:27:26;16.70;91.70
48208;DHT22;33997;53.278;9.708;2023-07-13T06:29:51;16.90;92.00
48208;DHT22;33997;53.278;9.708;2023-07-13T06:32:17;17.00;91.40
48208;DHT22;33997;53.278;9.708;2023-07-13T06:34:42;17.00;91.70
48208;DHT22;33997;53.278;9.708;2023-07-13T06:37:09;17.10;90.50
48208;DHT22;33997;53.278;9.708;2023-07-13T06:39:34;17.20;90.60
48208;DHT22;33997;53.278;9.708;2023-07-13T06:42:00;17.00;90.50
48208;DHT22;33997;53.278;9.708;2023-07-13T06:44:25;17.10;90.40
48208;DHT22;33997;53.278;9.708;2023-07-13T06:46:51;17.20;90.60
48208;DHT22;33997;53.278;9.708;2023-07-13T06:49:16;17.00;89.90
48208;DHT22;33997;53.278;9.708;2023-07-13T06:51:42;17.30;90.30
48208;DHT22;33997;53.278;9.708;2023-07-13T06:54:07;17.40;90.00
48208;DHT22;33997;53.278;9.708;2023-07-13T06:56:32;17.40;89.10
48208;DHT22;33997;53.278;9.708;2023-07-13T06:58:58;17.60;89.50
48208;DHT22;33997;53.278;9.708;2023-07-13T07:01:23;17.70;88.90
48208;DHT22;33997;53.278;9.708;2023-07-13T07:03:49;17.80;89.20
48208;DHT22;33997;53.278;9.708;2023-07-13T07:06:19;18.10;89.40
48208;DHT22;33997;53.278;9.708;2023-07-13T07:08:45;18.30;88.50
48208;DHT22;33997;53.278;9.708;2023-07-13T07:11:18;18.30;88.90
48208;DHT22;33997;53.278;9.708;2023-07-13T07:13:44;18.20;87.00
48208;DHT22;33997;53.278;9.708;2023-07-13T07:16:10;18.40;87.60
48208;DHT22;33997;53.278;9.708;2023-07-13T07:18:36;18.40;88.00
48208;DHT22;33997;53.278;9.708;2023-07-13T07:21:01;18.30;87.80
48208;DHT22;33997;53.278;9.708;2023-07-13T07:23:27;18.30;87.20
48208;DHT22;33997;53.278;9.708;2023-07-13T07:25:53;18.30;88.00
48208;DHT22;33997;53.278;9.708;2023-07-13T07:28:18;18.40;87.20
48208;DHT22;33997;53.278;9.708;2023-07-13T07:30:45;18.50;86.60
48208;DHT22;33997;53.278;9.708;2023-07-13T07:33:10;18.40;85.90
48208;DHT22;33997;53.278;9.708;2023-07-13T07:35:36;18.50;86.50
48208;DHT22;33997;53.278;9.708;2023-07-13T07:38:02;18.70;85.70
48208;DHT22;33997;53.278;9.708;2023-07-13T07:40:27;19.00;85.50
48208;DHT22;33997;53.278;9.708;2023-07-13T07:42:53;18.80;84.60
48208;DHT22;33997;53.278;9.708;2023-07-13T07:45:19;18.70;85.10
48208;DHT22;33997;53.278;9.708;2023-07-13T07:47:44;19.00;85.80
48208;DHT22;33997;53.278;9.708;2023-07-13T07:50:10;19.10;84.80
48208;DHT22;33997;53.278;9.708;2023-07-13T07:52:35;19.20;85.20
48208;DHT22;33997;53.278;9.708;2023-07-13T07:55:01;19.10;84.00
48208;DHT22;33997;53.278;9.708;2023-07-13T07:57:27;19.20;83.20
48208;DHT22;33997;53.278;9.708;2023-07-13T07:59:52;19.00;82.20
48208;DHT22;33997;53.278;9.708;2023-07-13T08:02:18;19.50;83.70
48208;DHT22;33997;53.278;9.708;2023-07-13T08:04:43;19.70;83.20
48208;DHT22;33997;53.278;9.708;2023-07-13T08:07:09;19.50;82.30
48208;DHT22;33997;53.278;9.708;2023-07-13T08:09:34;19.50;82.80
48208;DHT22;33997;53.278;9.708;2023-07-13T08:12:00;19.90;82.00
48208;DHT22;33997;53.278;9.708;2023-07-13T08:14:25;19.90;81.70
48208;DHT22;33997;53.278;9.708;2023-07-13T08:16:51;20.10;80.50
48208;DHT22;33997;53.278;9.708;2023-07-13T08:19:16;20.00;80.10
48208;DHT22;33997;53.278;9.708;2023-07-13T08:21:42;19.80;80.30
48208;DHT22;33997;53.278;9.708;2023-07-13T08:24:08;19.60;81.30
48208;DHT22;33997;53.278;9.708;2023-07-13T08:26:34;19.80;82.00
48208;DHT22;33997;53.278;9.708;2023-07-13T08:28:59;19.70;81.00
48208;DHT22;33997;53.278;9.708;2023-07-13T08:31:25;19.40;81.80
48208;DHT22;33997;53.278;9.708;2023-07-13T08:33:51;19.40;81.00
48208;DHT22;33997;53.278;9.708;2023-07-13T08:36:16;19.40;81.20
48208;DHT22;33997;53.278;9.708;2023-07-13T08:38:42;19.30;80.90
48208;DHT22;33997;53.278;9.708;2023-07-13T08:41:16;19.90;80.10
48208;DHT22;33997;53.278;9.708;2023-07-13T08:43:46;20.30;79.00
48208;DHT22;33997;53.278;9.708;2023-07-13T08:46:24;20.60;78.70
48208;DHT22;33997;53.278;9.708;2023-07-13T08:48:57;20.70;75.40
48208;DHT22;33997;53.278;9.708;2023-07-13T08:51:26;21.00;74.60
48208;DHT22;33997;53.278;9.708;2023-07-13T08:54:02;21.20;73.40
48208;DHT22;33997;53.278;9.708;2023-07-13T08:56:30;21.60;73.00
48208;DHT22;33997;53.278;9.708;2023-07-13T08:58:58;21.20;73.20
48208;DHT22;33997;53.278;9.708;2023-07-13T09:04:23;20.90;75.80
48208;DHT22;33997;53.278;9.708;2023-07-13T09:07:02;20.70;74.00
48208;DHT22;33997;53.278;9.708;2023-07-13T09:09:49;20.90;73.90
48208;DHT22;33997;53.278;9.708;2023-07-13T09:12:45;21.60;74.60
48208;DHT22;33997;53.278;9.708;2023-07-13T09:15:23;21.50;74.30
48208;DHT22;33997;53.278;9.708;2023-07-13T09:17:51;21.60;70.90
48208;DHT22;33997;53.278;9.708;2023-07-13T09:20:28;22.10;70.90
48208;DHT22;33997;53.278;9.708;2023-07-13T09:22:56;22.60;70.30
48208;DHT22;33997;53.278;9.708;2023-07-13T09:25:32;22.50;70.50
48208;DHT22;33997;53.278;9.708;2023-07-13T09:28:22;22.80;69.20
48208;DHT22;33997;53.278;9.708;2023-07-13T09:30:56;22.10;70.20
48208;DHT22;33997;53.278;9.708;2023-07-13T09:33:23;21.60;70.90
48208;DHT22;33997;53.278;9.708;2023-07-13T09:35:49;21.80;69.30
48208;DHT22;33997;53.278;9.708;2023-07-13T09:38:19;21.50;71.00
48208;DHT22;33997;53.278;9.708;2023-07-13T09:41:11;21.70;69.10
48208;DHT22;33997;53.278;9.708;2023-07-13T09:44:07;22.50;70.40
48208;DHT22;33997;53.278;9.708;2023-07-13T09:46:36;22.50;68.30
48208;DHT22;33997;53.278;9.708;2023-07-13T09:49:02;22.80;68.30
48208;DHT22;33997;53.278;9.708;2023-07-13T09:51:27;22.50;65.20
48208;DHT22;33997;53.278;9.708;2023-07-13T09:53:53;22.90;62.20
48208;DHT22;33997;53.278;9.708;2023-07-13T09:56:26;23.30;64.30
48208;DHT22;33997;53.278;9.708;2023-07-13T09:58:52;23.10;64.20
48208;DHT22;33997;53.278;9.708;2023-07-13T10:01:35;22.60;63.90
48208;DHT22;33997;53.278;9.708;2023-07-13T10:04:01;22.00;66.00
48208;DHT22;33997;53.278;9.708;2023-07-13T10:06:27;21.60;67.40
48208;DHT22;33997;53.278;9.708;2023-07-13T10:08:55;21.90;67.70
48208;DHT22;33997;53.278;9.708;2023-07-13T10:11:28;22.30;65.50
48208;DHT22;33997;53.278;9.708;2023-07-13T10:13:59;22.00;65.70
48208;DHT22;33997;53.278;9.708;2023-07-13T10:16:29;21.90;66.20
48208;DHT22;33997;53.278;9.708;2023-07-13T10:19:00;21.50;65.20
48208;DHT22;33997;53.278;9.708;2023-07-13T10:21:30;21.30;66.20
48208;DHT22;33997;53.278;9.708;2023-07-13T10:24:12;21.00;67.40
48208;DHT22;33997;53.278;9.708;2023-07-13T10:26:46;20.90;68.50
48208;DHT22;33997;53.278;9.708;2023-07-13T10:29:14;21.10;69.60
48208;DHT22;33997;53.278;9.708;2023-07-13T10:31:41;21.10;68.50
48208;DHT22;33997;53.278;9.708;2023-07-13T10:34:10;21.50;67.90
48208;DHT22;33997;53.278;9.708;2023-07-13T10:36:44;21.50;66.90
48208;DHT22;33997;53.278;9.708;2023-07-13T10:39:20;21.70;67.20
48208;DHT22;33997;53.278;9.708;2023-07-13T10:41:53;22.20;66.50
48208;DHT22;33997;53.278;9.708;2023-07-13T10:44:30;22.70;62.40
48208;DHT22;33997;53.278;9.708;2023-07-13T10:46:59;22.90;61.90
48208;DHT22;33997;53.278;9.708;2023-07-13T10:49:27;23.00;60.80
48208;DHT22;33997;53.278;9.708;2023-07-13T10:51:53;23.10;59.50
48208;DHT22;33997;53.278;9.708;2023-07-13T10:54:21;23.30;58.80
48208;DHT22;33997;53.278;9.708;2023-07-13T10:56:50;23.00;60.20
48208;DHT22;33997;53.278;9.708;2023-07-13T10:59:19;22.40;60.50
48208;DHT22;33997;53.278;9.708;2023-07-13T11:02:00;21.90;61.40
48208;DHT22;33997;53.278;9.708;2023-07-13T11:04:46;21.70;62.50
48208;DHT22;33997;53.278;9.708;2023-07-13T11:07:22;21.50;63.10
48208;DHT22;33997;53.278;9.708;2023-07-13T11:09:52;21.40;63.90
48208;DHT22;33997;53.278;9.708;2023-07-13T11:17:34;22.00;63.30
48208;DHT22;33997;53.278;9.708;2023-07-13T11:22:50;21.80;63.70
48208;DHT22;33997;53.278;9.708;2023-07-13T11:25:34;21.50;63.60
48208;DHT22;33997;53.278;9.708;2023-07-13T11:35:46;22.40;62.30
48208;DHT22;33997;53.278;9.708;2023-07-13T11:38:37;23.40;59.40
48208;DHT22;33997;53.278;9.708;2023-07-13T11:41:15;22.70;60.40
48208;DHT22;33997;53.278;9.708;2023-07-13T11:43:41;22.50;61.40
48208;DHT22;33997;53.278;9.708;2023-07-13T11:46:25;22.20;61.60
48208;DHT22;33997;53.278;9.708;2023-07-13T11:48:51;21.80;62.10
48208;DHT22;33997;53.278;9.708;2023-07-13T11:51:29;21.80;63.60
48208;DHT22;33997;53.278;9.708;2023-07-13T11:54:03;21.80;62.30
48208;DHT22;33997;53.278;9.708;2023-07-13T11:56:30;21.60;63.10
48208;DHT22;33997;53.278;9.708;2023-07-13T11:58:59;21.30;63.40
48208;DHT22;33997;53.278;9.708;2023-07-13T12:01:31;21.10;66.20
48208;DHT22;33997;53.278;9.708;2023-07-13T12:04:03;20.20;73.90
48208;DHT22;33997;53.278;9.708;2023-07-13T12:06:35;18.50;83.90
48208;DHT22;33997;53.278;9.708;2023-07-13T12:09:11;17.10;84.20
48208;DHT22;33997;53.278;9.708;2023-07-13T12:11:43;16.30;88.50
48208;DHT22;33997;53.278;9.708;2023-07-13T12:14:16;15.80;88.90
48208;DHT22;33997;53.278;9.708;2023-07-13T12:16:43;15.80;90.10
48208;DHT22;33997;53.278;9.708;2023-07-13T12:19:23;15.90;90.90
48208;DHT22;33997;53.278;9.708;2023-07-13T12:21:56;15.80;91.40
48208;DHT22;33997;53.278;9.708;2023-07-13T12:24:23;16.00;92.10
48208;DHT22;33997;53.278;9.708;2023-07-13T12:26:54;16.30;91.70
48208;DHT22;33997;53.278;9.708;2023-07-13T12:29:20;16.60;90.80
48208;DHT22;33997;53.278;9.708;2023-07-13T12:31:48;16.80;91.10
48208;DHT22;33997;53.278;9.708;2023-07-13T12:34:14;16.90;90.80
48208;DHT22;33997;53.278;9.708;2023-07-13T12:36:47;16.90;90.00
48208;DHT22;33997;53.278;9.708;2023-07-13T12:39:19;16.90;89.90
48208;DHT22;33997;53.278;9.708;2023-07-13T12:41:46;16.80;88.80
48208;DHT22;33997;53.278;9.708;2023-07-13T12:44:18;16.90;89.90
48208;DHT22;33997;53.278;9.708;2023-07-13T12:46:56;17.00;90.30
48208;DHT22;33997;53.278;9.708;2023-07-13T12:49:28;17.00;90.10
48208;DHT22;33997;53.278;9.708;2023-07-13T12:51:59;17.00;90.50
48208;DHT22;33997;53.278;9.708;2023-07-13T12:54:27;17.20;91.10
48208;DHT22;33997;53.278;9.708;2023-07-13T12:56:53;17.30;91.70
48208;DHT22;33997;53.278;9.708;2023-07-13T12:59:21;17.40;91.00
48208;DHT22;33997;53.278;9.708;2023-07-13T13:01:48;17.50;91.00
48208;DHT22;33997;53.278;9.708;2023-07-13T13:04:18;17.60;91.70
48208;DHT22;33997;53.278;9.708;2023-07-13T13:06:47;17.60;92.00
48208;DHT22;33997;53.278;9.708;2023-07-13T13:09:14;17.70;92.20
48208;DHT22;33997;53.278;9.708;2023-07-13T13:11:41;17.70;91.00
48208;DHT22;33997;53.278;9.708;2023-07-13T13:14:07;17.90;92.00
48208;DHT22;33997;53.278;9.708;2023-07-13T13:16:35;17.70;90.80
48208;DHT22;33997;53.278;9.708;2023-07-13T13:19:15;17.60;91.20
48208;DHT22;33997;53.278;9.708;2023-07-13T13:21:41;17.30;90.90
48208;DHT22;33997;53.278;9.708;2023-07-13T13:24:12;17.30;91.40
48208;DHT22;33997;53.278;9.708;2023-07-13T13:26:38;17.20;92.30
48208;DHT22;33997;53.278;9.708;2023-07-13T13:31:39;16.90;92.30
48208;DHT22;33997;53.278;9.708;2023-07-13T13:34:10;16.80;92.80
48208;DHT22;33997;53.278;9.708;2023-07-13T13:36:36;16.80;93.60
48208;DHT22;33997;53.278;9.708;2023-07-13T13:39:02;16.60;92.50
48208;DHT22;33997;53.278;9.708;2023-07-13T13:41:30;16.60;93.10
48208;DHT22;33997;53.278;9.708;2023-07-13T13:43:56;16.60;93.30
48208;DHT22;33997;53.278;9.708;2023-07-13T13:46:24;16.60;93.30
48208;DHT22;33997;53.278;9.708;2023-07-13T13:48:55;16.60;93.10
48208;DHT22;33997;53.278;9.708;2023-07-13T13:51:22;16.70;92.80
48208;DHT22;33997;53.278;9.708;2023-07-13T13:53:49;16.80;93.00
48208;DHT22;33997;53.278;9.708;2023-07-13T13:56:16;16.90;92.00
48208;DHT22;33997;53.278;9.708;2023-07-13T13:58:42;17.00;91.80
48208;DHT22;33997;53.278;9.708;2023-07-13T14:01:17;17.10;90.90
48208;DHT22;33997;53.278;9.708;2023-07-13T14:03:43;17.40;88.90
48208;DHT22;33997;53.278;9.708;2023-07-13T14:06:13;17.80;89.80
48208;DHT22;33997;53.278;9.708;2023-07-13T14:08:39;18.20;89.40
48208;DHT22;33997;53.278;9.708;2023-07-13T14:11:05;18.10;85.70
48208;DHT22;33997;53.278;9.708;2023-07-13T14:13:36;18.40;83.90
48208;DHT22;33997;53.278;9.708;2023-07-13T14:16:02;18.50;84.00
48208;DHT22;33997;53.278;9.708;2023-07-13T14:18:28;18.50;84.60
48208;DHT22;33997;53.278;9.708;2023-07-13T14:20:54;18.40;82.20
48208;DHT22;33997;53.278;9.708;2023-07-13T14:23:19;18.50;82.70
48208;DHT22;33997;53.278;9.708;2023-07-13T14:25:46;18.30;82.50
48208;DHT22;33997;53.278;9.708;2023-07-13T14:30:46;18.20;81.90
48208;DHT22;33997;53.278;9.708;2023-07-13T14:33:13;18.10;82.30
48208;DHT22;33997;53.278;9.708;2023-07-13T14:35:38;18.00;84.00
48208;DHT22;33997;53.278;9.708;2023-07-13T14:38:04;18.00;83.90
48208;DHT22;33997;53.278;9.708;2023-07-13T14:40:31;17.90;82.50
48208;DHT22;33997;53.278;9.708;2023-07-13T14:42:57;17.80;83.20
48208;DHT22;33997;53.278;9.708;2023-07-13T14:45:23;17.80;83.50
48208;DHT22;33997;53.278;9.708;2023-07-13T14:47:50;17.80;85.40
48208;DHT22;33997;53.278;9.708;2023-07-13T14:50:19;17.80;85.60
48208;DHT22;33997;53.278;9.708;2023-07-13T14:52:45;17.80;85.00
48208;DHT22;33997;53.278;9.708;2023-07-13T14:55:14;17.80;84.40
48208;DHT22;33997;53.278;9.708;2023-07-13T14:57:40;17.90;85.60
48208;DHT22;33997;53.278;9.708;2023-07-13T15:00:16;18.10;86.40
48208;DHT22;33997;53.278;9.708;2023-07-13T15:02:46;18.40;84.00
48208;DHT22;33997;53.278;9.708;2023-07-13T15:05:15;18.60;83.60
48208;DHT22;33997;53.278;9.708;2023-07-13T15:07:41;19.20;80.80
48208;DHT22;33997;53.278;9.708;2023-07-13T15:10:17;20.60;77.30
48208;DHT22;33997;53.278;9.708;2023-07-13T15:12:43;21.40;73.20
48208;DHT22;33997;53.278;9.708;2023-07-13T15:15:09;22.00;73.20
48208;DHT22;33997;53.278;9.708;2023-07-13T15:17:40;22.50;69.10
48208;DHT22;33997;53.278;9.708;2023-07-13T15:22:37;23.30;68.20
48208;DHT22;33997;53.278;9.708;2023-07-13T15:25:02;23.30;69.10
48208;DHT22;33997;53.278;9.708;2023-07-13T15:27:33;22.80;66.30
48208;DHT22;33997;53.278;9.708;2023-07-13T15:29:58;23.40;66.80
48208;DHT22;33997;53.278;9.708;2023-07-13T15:32:24;23.30;66.40
48208;DHT22;33997;53.278;9.708;2023-07-13T15:34:49;22.10;67.70
48208;DHT22;33997;53.278;9.708;2023-07-13T15:37:15;21.20;71.70
48208;DHT22;33997;53.278;9.708;2023-07-13T15:39:41;20.50;73.10
48208;DHT22;33997;53.278;9.708;2023-07-13T15:42:15;20.20;72.30
48208;DHT22;33997;53.278;9.708;2023-07-13T15:44:41;20.00;74.40
48208;DHT22;33997;53.278;9.708;2023-07-13T15:47:11;19.80;75.80
48208;DHT22;33997;53.278;9.708;2023-07-13T15:49:38;19.60;76.50
48208;DHT22;33997;53.278;9.708;2023-07-13T15:52:04;19.30;77.10
48208;DHT22;33997;53.278;9.708;2023-07-13T15:54:31;19.10;77.10
48208;DHT22;33997;53.278;9.708;2023-07-13T15:57:01;19.10;78.90
48208;DHT22;33997;53.278;9.708;2023-07-13T15:59:26;19.10;78.50
48208;DHT22;33997;53.278;9.708;2023-07-13T16:01:52;19.00;78.40
48208;DHT22;33997;53.278;9.708;2023-07-13T16:04:17;18.90;79.60
48208;DHT22;33997;53.278;9.708;2023-07-13T16:06:45;18.70;79.10